createdAt,value
2022-08-21T00:01:24.315Z,23.05677949917772
2022-08-21T00:04:22.133Z,23.090182616879247
2022-08-21T00:07:18.278Z,23.125512850906034
2022-08-21T00:11:16.587Z,22.998324072788183
2022-08-21T00:14:17.265Z,22.962993888283382
2022-08-21T00:17:16.755Z,22.916101119186443
2022-08-21T00:21:17.514Z,22.93986868405627
2022-08-21T00:24:16.769Z,22.951431285433138
2022-08-21T00:27:16.864Z,22.877559135333378
2022-08-21T00:31:17.429Z,22.91353165308692
2022-08-21T00:34:16.965Z,22.794051559813035
2022-08-21T00:37:16.918Z,22.733026841687753
2022-08-21T00:41:27.557Z,22.745874147356155
2022-08-21T00:51:20.276Z,22.691915475772475
2022-08-21T00:54:19.388Z,22.618685901374555
2022-08-21T00:57:22.995Z,22.500490923511098
2022-08-21T01:01:17.549Z,22.53646329178009
2022-08-21T01:04:18.048Z,22.555734209219008
2022-08-21T01:07:17.844Z,22.418910784030686
2022-08-21T01:11:17.591Z,22.404136435906185
2022-08-21T01:14:19.002Z,22.402209347197733
2022-08-21T01:17:19.395Z,22.325768194772536
2022-08-21T01:21:19.659Z,22.35210505514342
2022-08-21T01:24:16.582Z,22.363667581623396
2022-08-21T01:27:16.674Z,22.33026473136788
2022-08-21T01:31:24.813Z,22.33347654335812
2022-08-21T01:34:17.486Z,22.284657013375543
2022-08-21T01:37:19.285Z,22.246757659525702
2022-08-21T01:41:17.277Z,22.31099386181386
2022-08-21T01:44:21.475Z,22.24868474493269
2022-08-21T01:47:17.694Z,22.224274999468253
2022-08-21T01:51:15.996Z,22.190872200526428
2022-08-21T01:54:16.812Z,22.04634100066187
2022-08-21T01:57:16.646Z,22.01807714848919
2022-08-21T02:01:16.639Z,22.030924352930832
2022-08-21T02:04:17.046Z,22.009726466577558
2022-08-21T02:07:17.225Z,21.943563398598144
2022-08-21T02:11:16.768Z,21.97760846638739
2022-08-21T02:14:28.682Z,21.93842452155086
2022-08-21T02:17:17.169Z,21.90694890598679
2022-08-21T02:21:16.901Z,21.908875984176937
2022-08-21T02:24:17.215Z,21.81894571224702
2022-08-21T02:27:17.039Z,21.782331269921634
2022-08-21T02:31:16.715Z,21.856844887408442
2022-08-21T02:34:17.200Z,21.811237407371756
2022-08-21T02:37:17.189Z,21.768841742262975
2022-08-21T02:41:19.720Z,21.744432125883122
2022-08-21T02:44:17.305Z,21.731584962004945
2022-08-21T02:47:17.145Z,21.68019632468213
2022-08-21T02:51:19.421Z,21.702036491988203
2022-08-21T02:54:17.010Z,21.664137381487308
2022-08-21T02:57:16.606Z,21.617887640966
2022-08-21T03:01:17.577Z,21.584485065250554
2022-08-21T03:04:17.466Z,21.46629143453065
2022-08-21T03:07:17.625Z,21.393062849262787
2022-08-21T03:11:17.099Z,21.48299269909621
2022-08-21T03:14:17.537Z,21.46629143453065
2022-08-21T03:17:17.107Z,21.44766310460336
2022-08-21T03:21:17.192Z,21.448305460744088
2022-08-21T03:24:17.210Z,21.400128762808983
2022-08-21T03:27:16.772Z,21.30955663993991
2022-08-21T03:31:16.545Z,21.357733289785482
2022-08-21T03:34:16.820Z,21.303133088559843
2022-08-21T03:37:16.783Z,21.27294240316487
2022-08-21T03:41:16.828Z,21.275511822807402
2022-08-21T03:44:17.806Z,21.220269316527357
2022-08-21T03:47:17.502Z,21.162457427366554
2022-08-21T03:51:16.036Z,21.220911671058275
2022-08-21T03:54:16.393Z,21.149610345888597
2022-08-21T03:57:16.866Z,21.169523322954774
2022-08-21T04:01:17.228Z,21.10849969738274
2022-08-21T04:04:17.508Z,21.084732612212246
2022-08-21T04:07:18.845Z,21.134193850516112
2022-08-21T04:11:16.508Z,21.06610436061974
2022-08-21T04:14:17.672Z,21.062892593490325
2022-08-21T04:17:16.678Z,21.093725562625696
2022-08-21T04:21:16.946Z,21.114923234983962
2022-08-21T04:24:16.892Z,21.07445495568827
2022-08-21T04:27:17.187Z,21.04105258002528
2022-08-21T04:31:16.243Z,20.959473752691064
2022-08-21T04:34:16.404Z,20.982598452203185
2022-08-21T04:37:17.152Z,20.927356124256857
2022-08-21T04:41:17.382Z,20.99544551003428
2022-08-21T04:44:17.774Z,20.978101982392037
2022-08-21T04:47:18.230Z,20.9080855526533
2022-08-21T04:51:21.264Z,20.919005542726154
2022-08-21T04:54:20.990Z,20.902946734250236
2022-08-21T04:57:18.280Z,20.880464407158797
2022-08-21T05:01:21.362Z,20.928640829175947
2022-08-21T05:04:21.587Z,20.884960872131433
2022-08-21T05:07:41.607Z,20.87789499870305
2022-08-21T05:11:15.923Z,20.902304381970318
2022-08-21T05:14:17.405Z,20.859909141550087
2022-08-21T05:17:16.502Z,20.89780791613821
2022-08-21T05:21:16.764Z,20.935706706556083
2022-08-21T05:24:17.038Z,20.865047957515706
2022-08-21T05:27:17.821Z,20.866332661552587
2022-08-21T05:31:17.306Z,20.90872790497415
2022-08-21T05:34:20.569Z,20.857982085638014
2022-08-21T05:37:17.391Z,20.840638584271073
2022-08-21T05:41:16.949Z,20.902304381970318
2022-08-21T05:44:17.424Z,20.863120901494494
2022-08-21T05:47:17.456Z,20.863120901494494
2022-08-21T05:51:16.660Z,20.904231438823718
2022-08-21T05:54:16.408Z,20.907443200337003
2022-08-21T05:57:16.696Z,20.869544421724367
2022-08-21T06:01:19.515Z,20.92029024752701
2022-08-21T06:04:19.670Z,20.937633764118893
2022-08-21T06:07:19.749Z,20.99929962773831
2022-08-21T06:11:17.206Z,21.042979639825443
2022-08-21T06:14:17.627Z,21.056469059572557
2022-08-21T06:17:17.754Z,21.13483620443767
2022-08-21T06:21:16.375Z,21.19264807599975
2022-08-21T06:24:16.352Z,21.17080803130266
2022-08-21T06:27:16.739Z,21.22155402559374
2022-08-21T06:31:19.428Z,21.303133088559843
2022-08-21T06:34:17.647Z,21.355163867814646
2022-08-21T06:37:16.235Z,21.37507688999176
2022-08-21T06:41:16.824Z,21.521534090595377
2022-08-21T06:44:17.386Z,21.539520078897475
2022-08-21T06:47:16.965Z,21.588339207974787
2022-08-21T06:51:16.608Z,21.694328197044616
2022-08-21T06:54:16.992Z,21.766272308650606
2022-08-21T06:57:17.930Z,21.800959668556697
2022-08-21T07:01:16.784Z,21.912730140680015
2022-08-21T07:04:17.171Z,21.992382745062876
2022-08-21T07:07:17.535Z,22.06175765101225
2022-08-21T07:11:19.433Z,22.16196594213625
2022-08-21T07:14:20.291Z,22.248042383125814
2022-08-21T07:17:17.266Z,22.355959230473037
2022-08-21T07:21:17.247Z,22.488286016088477
2022-08-21T07:24:17.227Z,22.588494778257974
2022-08-21T07:27:17.319Z,22.67200216460342
2022-08-21T07:31:18.587Z,22.817176726878188
2022-08-21T07:34:17.271Z,22.902611422975678
2022-08-21T07:37:17.404Z,22.978410694375633
2022-08-21T07:41:19.222Z,23.10046050172277
2022-08-21T07:44:17.113Z,23.195530991713532
2022-08-21T07:47:17.068Z,23.28289315141774
2022-08-21T07:51:20.801Z,23.395950188831556
2022-08-21T07:54:17.910Z,23.48973624721548
2022-08-21T07:57:17.384Z,23.593800343256227
2022-08-21T08:01:16.781Z,23.742830614559715
2022-08-21T08:04:17.134Z,23.846895000856602
2022-08-21T08:07:16.603Z,23.93682728267886
2022-08-21T08:11:16.705Z,24.117976863790318
2022-08-21T08:14:17.221Z,24.213048419854385
2022-08-21T08:17:16.677Z,24.326106616182734
2022-08-21T08:21:16.628Z,24.424390276307623
2022-08-21T08:24:19.136Z,24.493124663964046
2022-08-21T08:27:17.968Z,24.625454566245025
2022-08-21T08:31:16.034Z,24.73722851754028
2022-08-21T08:34:25.411Z,24.831015962212405
2022-08-21T08:37:16.717Z,24.924161123066824
2022-08-21T08:41:20.160Z,25.053279745552935
2022-08-21T08:44:17.643Z,25.136147017971325
2022-08-21T08:47:18.875Z,25.18496808210775
2022-08-21T08:51:24.450Z,25.3346433503335
2022-08-21T08:54:21.990Z,25.47661024918716
2022-08-21T08:57:20.106Z,25.55048451518087
2022-08-21T09:01:19.828Z,25.736134023020078
2022-08-21T09:04:23.790Z,25.861399476468797
2022-08-21T09:07:30.501Z,25.938485995307566
2022-08-21T09:11:27.366Z,26.174242671805494
2022-08-21T09:14:30.934Z,26.320065227887607
2022-08-21T09:17:32.379Z,26.46010649351083
2022-08-21T09:21:23.901Z,26.66888401094993
2022-08-21T09:24:29.768Z,26.810210603068207
2022-08-21T09:27:18.292Z,26.98044519944269
2022-08-21T09:31:24.006Z,27.205283835019507
2022-08-21T09:34:26.709Z,27.315133770970807
2022-08-21T09:37:18.053Z,27.50978047526769
2022-08-21T09:41:41.712Z,27.799502910632235
2022-08-21T09:44:44.375Z,28.010210717318934
2022-08-21T09:47:42.725Z,28.181089968586548
2022-08-21T09:51:21.340Z,28.391798661266602
2022-08-21T09:54:18.617Z,28.537624780767146
2022-08-21T09:57:50.293Z,28.698226505104685
2022-08-21T10:01:19.038Z,28.95390503665585
2022-08-21T10:04:21.165Z,29.187099903335273
2022-08-21T10:07:20.471Z,29.251983430097244
2022-08-21T10:11:17.877Z,29.42543466999341
2022-08-21T10:14:30.290Z,29.542996254413538
2022-08-21T10:17:22.798Z,29.609164863443947
2022-08-21T10:21:23.665Z,29.74150222623721
2022-08-21T10:24:31.636Z,29.852640063490345
2022-08-21T10:27:32.686Z,29.924590643422654
2022-08-21T10:31:25.300Z,29.948360043971114
2022-08-21T10:34:28.264Z,30.081340318638194
2022-08-21T10:37:25.721Z,30.1507214088605
2022-08-21T10:41:25.249Z,30.395482900762364
2022-08-21T10:44:29.466Z,30.62225726060433
2022-08-21T10:47:24.917Z,30.74367492697784
2022-08-21T10:51:29.003Z,30.994219831339798
2022-08-21T10:54:25.531Z,31.192728977440947
2022-08-21T10:57:32.022Z,31.309650425255768
2022-08-21T11:01:22.696Z,31.49274200605032
2022-08-21T11:04:20.767Z,31.64435496304977
2022-08-21T11:07:22.644Z,31.869205153756774
2022-08-21T11:11:22.528Z,32.05872217570222
2022-08-21T11:14:24.595Z,32.01310956815723
2022-08-21T11:17:24.539Z,32.05294029460383
2022-08-21T11:21:31.288Z,32.17435987502258
2022-08-21T11:24:29.744Z,32.19106311043588
2022-08-21T11:27:24.419Z,32.270082304254174
2022-08-21T11:31:30.087Z,32.51163733960711
2022-08-21T11:34:35.253Z,32.77889046827913
2022-08-21T11:37:27.225Z,32.93050557383249
2022-08-21T11:41:28.122Z,33.066702410025755
2022-08-21T11:44:24.326Z,33.12195212826227
2022-08-21T11:47:26.014Z,33.29284100453951
2022-08-21T11:51:20.637Z,33.57358771408335
2022-08-21T11:54:25.990Z,33.851123072291465
2022-08-21T11:57:23.234Z,33.97639972725883
2022-08-21T12:01:19.519Z,34.06056003872372
2022-08-21T12:04:29.092Z,34.17106071883982
2022-08-21T12:07:34.047Z,34.278349298605825
2022-08-21T12:11:30.621Z,34.35994009985161
2022-08-21T12:14:18.852Z,34.43831873389945
2022-08-21T12:17:20.744Z,34.43960363010346
2022-08-21T12:21:22.031Z,34.516054986981906
2022-08-21T12:24:19.941Z,34.535970897245804
2022-08-21T12:27:26.242Z,34.45245259314406
2022-08-21T12:31:28.171Z,34.33231485972101
2022-08-21T12:34:19.504Z,34.26357301961043
2022-08-21T12:37:26.016Z,34.21988664360697
2022-08-21T12:41:20.843Z,34.05863270247355
2022-08-21T12:44:21.686Z,34.04064423277887
2022-08-21T12:47:25.701Z,34.06698449318655
2022-08-21T12:51:19.127Z,34.042571568647055
2022-08-21T12:54:25.490Z,33.941065268606415
2022-08-21T12:57:23.618Z,33.871038836649674
2022-08-21T13:01:22.748Z,33.8524079601827
2022-08-21T13:04:19.950Z,33.849838184418424
2022-08-21T13:07:25.651Z,33.750901872818304
2022-08-21T13:11:32.703Z,33.63397727997081
2022-08-21T13:14:23.420Z,33.5812970181295
2022-08-21T13:17:25.424Z,33.52347725374502
2022-08-21T13:21:16.204Z,33.52347725374502
2022-08-21T13:24:41.287Z,33.50741621461966
2022-08-21T13:27:19.803Z,33.562666201138924
2022-08-21T13:31:22.107Z,33.69308200038586
2022-08-21T13:34:18.844Z,33.64232903160737
2022-08-21T13:37:18.065Z,33.659032537186064
2022-08-21T13:41:22.575Z,33.69886398597155
2022-08-21T13:44:20.984Z,33.86461439605664
2022-08-21T13:47:18.009Z,33.99438818422059
2022-08-21T13:51:17.039Z,34.063772265898294
2022-08-21T13:54:23.852Z,34.03935934222282
2022-08-21T13:57:18.567Z,34.04128667806371
2022-08-21T14:01:21.102Z,33.87489350122378
2022-08-21T14:04:22.283Z,33.82542531828667
2022-08-21T14:07:21.133Z,33.78752114441049
2022-08-21T14:11:16.853Z,33.71364017303067
2022-08-21T14:14:26.609Z,33.64939589897703
2022-08-21T14:17:32.837Z,33.607637145228
2022-08-21T14:21:29.852Z,33.715567501954865
2022-08-21T14:24:27.805Z,33.87874816596159
2022-08-21T14:27:18.375Z,34.0342197801805
2022-08-21T14:31:19.563Z,34.305974522310954
2022-08-21T14:34:19.747Z,34.34773359736173
2022-08-21T14:37:16.606Z,34.43253670120648
2022-08-21T14:41:21.768Z,34.540468038877954
2022-08-21T14:44:18.439Z,34.65418155134184
2022-08-21T14:47:17.135Z,34.71200203604612
2022-08-21T14:51:17.304Z,34.81993370604696
2022-08-21T14:54:17.205Z,34.9310777622657
2022-08-21T14:57:17.541Z,35.02487574219704
2022-08-21T15:01:18.281Z,35.20090782920924
2022-08-21T15:11:42.259Z,35.36409116371069
2022-08-21T15:14:20.324Z,35.41034791032435
2022-08-21T15:17:17.179Z,35.37629780288853
2022-08-21T15:21:16.010Z,35.272862649205855
2022-08-21T15:31:16.056Z,35.14886911100702
2022-08-21T15:41:17.488Z,34.71585673633608
2022-08-21T15:51:17.163Z,34.21410462482927
2022-08-21T15:54:17.143Z,33.541465620939654
2022-08-21T15:57:20.118Z,33.712997730065034
2022-08-21T16:01:16.872Z,33.66288719275617
2022-08-21T16:04:22.681Z,33.4810761166068
2022-08-21T16:07:17.731Z,33.39370413890729
2022-08-21T16:11:16.562Z,33.232451665634656
2022-08-21T16:14:17.116Z,33.18105651523838
2022-08-21T16:17:17.009Z,33.03201074367134
2022-08-21T16:21:16.485Z,32.830927827655344
2022-08-21T16:24:16.882Z,32.902880768781415
2022-08-21T16:27:18.189Z,32.705652753776306
2022-08-21T16:31:17.552Z,32.56174724128832
2022-08-21T16:34:19.097Z,32.523201160616374
2022-08-21T16:37:24.032Z,32.405635715677725
2022-08-21T16:41:18.693Z,32.13709882248595
2022-08-21T16:44:17.204Z,32.07349809573825
2022-08-21T16:47:26.362Z,31.907108526486354
2022-08-21T16:51:16.445Z,31.779907439903855
2022-08-21T16:54:15.983Z,31.812671339098596
2022-08-21T16:57:16.239Z,31.92509657332057
2022-08-21T17:01:20.663Z,31.66748238553446
2022-08-21T17:04:16.887Z,31.66170052936077
2022-08-21T17:07:16.920Z,31.57497273095687
2022-08-21T17:11:37.390Z,31.504305697238305
2022-08-21T17:14:20.194Z,31.447129682954348
2022-08-21T17:17:17.189Z,31.36168694222615
2022-08-21T17:21:18.695Z,31.176668350771433
2022-08-21T17:24:16.750Z,31.163177426565472
2022-08-21T17:27:17.678Z,31.093795562326797
2022-08-21T17:31:16.498Z,31.078377377476954
2022-08-21T17:34:16.790Z,30.990365289110922
2022-08-21T17:37:16.631Z,30.88051090440722
2022-08-21T17:41:17.066Z,30.877298789896304
2022-08-21T17:44:19.976Z,30.865735178598335
2022-08-21T17:47:16.768Z,30.802777765157224
2022-08-21T17:51:16.916Z,30.68007517671367
2022-08-21T17:54:16.563Z,30.58563926612005
2022-08-21T17:57:20.235Z,30.549021286410515
2022-08-21T18:01:17.210Z,30.399979837235243
2022-08-21T18:04:17.392Z,30.332525813538815
2022-08-21T18:07:32.070Z,30.41090096959706
2022-08-21T18:11:23.968Z,30.233593336140984
2022-08-21T18:14:16.958Z,30.14108514315776
2022-08-21T18:17:20.991Z,30.094831082027305
2022-08-21T18:21:16.576Z,29.938723799755188
2022-08-21T18:24:17.564Z,29.918166482180915
2022-08-21T18:27:18.002Z,29.8847608510544
2022-08-21T18:31:15.882Z,29.81473754878716
2022-08-21T18:34:26.917Z,29.69974527053646
2022-08-21T18:37:16.119Z,29.690751467207974
2022-08-21T18:41:16.543Z,29.731223589205182
2022-08-21T18:44:20.162Z,29.586037965483047
2022-08-21T18:47:21.527Z,29.62972211102351
2022-08-21T18:51:16.359Z,29.38496268436584
2022-08-21T18:54:16.363Z,29.29438259145827
2022-08-21T18:57:17.662Z,29.300164296815
2022-08-21T19:01:16.250Z,29.319436650664375
2022-08-21T19:04:41.083Z,29.291812944751292
2022-08-21T19:07:17.348Z,29.202517766878827
2022-08-21T19:11:16.248Z,29.07146601025024
2022-08-21T19:14:18.007Z,28.91600289730568
2022-08-21T19:17:16.317Z,28.936559987870076
2022-08-21T19:21:16.663Z,28.813859922614938
2022-08-21T19:24:17.280Z,28.831847356358775
2022-08-21T19:27:15.991Z,28.78238192214203
2022-08-21T19:41:17.474Z,28.32755815434002
2022-08-21T19:44:19.996Z,28.292868299508065
2022-08-21T19:47:19.143Z,28.201646892677037
2022-08-21T19:51:15.547Z,28.137406520355672
2022-08-21T19:54:19.278Z,28.180447564783755
2022-08-21T19:57:16.653Z,28.07573580570979
2022-08-21T20:01:18.845Z,28.020489159428053
2022-08-21T20:04:18.406Z,27.802714916208423
2022-08-21T20:07:17.405Z,27.84382859762445
2022-08-21T20:11:23.650Z,27.759031650112956
2022-08-21T20:14:19.964Z,27.696076391846873
2022-08-21T20:17:18.395Z,27.579159599508056
2022-08-21T20:21:16.974Z,27.38836713547871
2022-08-21T20:24:16.488Z,27.41727505878989
2022-08-21T20:27:21.540Z,27.326054532104173
2022-08-21T20:31:17.113Z,27.43654701277992
2022-08-21T20:34:16.130Z,26.974021246611663
2022-08-21T20:37:22.080Z,27.086440486808804
2022-08-21T20:41:21.159Z,26.985584362034935
2022-08-21T20:44:16.354Z,26.920702455665104
2022-08-21T20:47:16.382Z,26.959246156826065
2022-08-21T20:51:23.273Z,26.889867506523387
2022-08-21T20:54:24.822Z,26.83526397645619
2022-08-21T20:57:21.986Z,26.767812602322465
2022-08-21T21:01:18.341Z,26.724129834393626
2022-08-21T21:04:26.837Z,26.665672045505197
2022-08-21T21:07:24.048Z,26.555180503427984
2022-08-21T21:11:21.400Z,26.606571901612917
2022-08-21T21:14:19.409Z,26.449185836587368
2022-08-21T21:17:28.463Z,26.42927170087496
2022-08-21T21:21:24.583Z,26.395867354009532
2022-08-21T21:24:19.523Z,26.31299893122132
2022-08-21T21:27:25.028Z,26.327773915787475
2022-08-21T21:31:17.856Z,26.24554794528267
2022-08-21T21:34:17.081Z,26.208931716768802
2022-08-21T21:37:25.349Z,26.097798341751332
2022-08-21T21:51:32.374Z,25.870392900292426
2022-08-21T21:54:29.920Z,25.662259605891087
2022-08-21T21:57:29.987Z,25.66675630782347
2022-08-21T22:01:25.476Z,25.783028249445852
2022-08-21T22:11:28.732Z,25.678319256672786
2022-08-21T22:14:22.649Z,25.656478132305438
2022-08-21T22:21:24.003Z,25.556908367239885
2022-08-21T22:24:22.187Z,25.46697447979568
2022-08-21T22:27:21.109Z,25.506159948367802
2022-08-21T22:41:18.242Z,25.230577257860933
2022-08-21T22:44:23.193Z,25.089253125834876
2022-08-21T22:47:21.632Z,25.039147350058194
2022-08-21T22:51:29.912Z,25.05006783729268
2022-08-21T22:54:25.035Z,25.037862586940538
2022-08-21T22:57:23.739Z,24.984544933599047
2022-08-21T23:01:31.141Z,24.965915881382898
2022-08-21T23:04:19.578Z,24.920306838652415
2022-08-21T23:07:31.780Z,24.868274015080896
2022-08-21T23:11:19.498Z,24.84579070548507
2022-08-21T23:14:16.618Z,24.778983189840893
2022-08-21T23:17:22.296Z,24.711533344135752
2022-08-21T23:21:26.227Z,24.717314757517396
2022-08-21T23:24:36.451Z,24.633805488881716
2022-08-21T23:27:35.804Z,24.518177397645285
2022-08-21T23:31:25.433Z,24.59205088338349
2022-08-21T23:34:25.818Z,24.625454566245025
2022-08-21T23:37:59.833Z,24.549653918997866
2022-08-21T23:41:34.421Z,24.554150565796682
2022-08-21T23:44:32.261Z,24.472568579955624
2022-08-21T23:47:29.750Z,24.33124562845369
2022-08-21T23:51:25.540Z,24.39612568340608
2022-08-21T23:54:20.183Z,24.278570766473422
2022-08-21T23:57:31.610Z,24.249021467042986
